Time;durP1;ratioP1;P1;durP2;ratioP2;P2;SDS_P1;SDS_P2;PMS_P1;PMS_P2;Temp;Humidity;BMP_temperature;BMP_pressure;BME280_temperature;BME280_humidity;BME280_pressure;Samples;Min_cycle;Max_cycle;Signal;HPM_P1;HPM_P2
2022/11/22 00:02:26;;;;;;;16.70;3.77;;;7.70;99.90;;;;;;5073141;28;20279;-68
2022/11/22 00:04:52;;;;;;;13.63;3.60;;;7.70;99.90;;;;;;5055452;28;20632;-67
2022/11/22 00:07:17;;;;;;;18.77;3.60;;;7.70;99.90;;;;;;5073221;28;20183;-67
2022/11/22 00:09:43;;;;;;;16.77;3.73;;;7.60;99.90;;;;;;5073151;28;20253;-67
2022/11/22 00:12:08;;;;;;;12.63;3.33;;;7.60;99.90;;;;;;5073325;28;20176;-68
2022/11/22 00:14:34;;;;;;;15.63;4.30;;;7.60;99.90;;;;;;5073299;28;20531;-68
2022/11/22 00:16:59;;;;;;;16.13;3.70;;;7.50;99.90;;;;;;5073062;28;20180;-68
2022/11/22 00:19:25;;;;;;;15.40;3.43;;;7.60;99.90;;;;;;5072318;28;20211;-68
2022/11/22 00:21:51;;;;;;;12.60;3.60;;;7.50;99.90;;;;;;5073109;28;20290;-69
2022/11/22 00:24:16;;;;;;;13.77;3.30;;;7.50;99.90;;;;;;5073262;28;20180;-68
2022/11/22 00:26:42;;;;;;;22.93;3.77;;;7.40;99.90;;;;;;5073276;28;20176;-68
2022/11/22 00:29:08;;;;;;;21.67;3.53;;;7.40;99.90;;;;;;5073159;28;20165;-68
2022/11/22 00:31:33;;;;;;;18.00;3.97;;;7.40;99.90;;;;;;5072456;28;20638;-67
2022/11/22 00:33:59;;;;;;;16.30;3.23;;;7.30;99.90;;;;;;5071804;28;20173;-68
2022/11/22 00:36:24;;;;;;;13.80;3.53;;;7.30;99.90;;;;;;5072919;28;20196;-68
2022/11/22 00:38:51;;;;;;;14.63;3.80;;;7.30;99.90;;;;;;5073103;28;20218;-68
2022/11/22 00:41:17;;;;;;;20.90;4.37;;;7.30;99.90;;;;;;5073187;28;20655;-67
2022/11/22 00:43:42;;;;;;;16.17;3.57;;;7.30;99.90;;;;;;5073124;28;20165;-69
2022/11/22 00:46:08;;;;;;;17.13;3.87;;;7.30;99.90;;;;;;5072644;28;20179;-68
2022/11/22 00:48:33;;;;;;;15.93;3.47;;;7.20;99.90;;;;;;5072998;28;20233;-69
2022/11/22 00:50:59;;;;;;;14.60;3.60;;;7.20;99.90;;;;;;5072857;28;20558;-68
2022/11/22 00:53:25;;;;;;;17.23;3.53;;;7.20;99.90;;;;;;5077144;28;20171;-68
2022/11/22 00:56:09;;;;;;;19.77;3.57;;;7.20;99.90;;;;;;5076943;28;20629;-68
2022/11/22 00:58:35;;;;;;;12.30;3.33;;;7.10;99.90;;;;;;5076798;28;20753;-69
2022/11/22 01:01:01;;;;;;;17.37;3.57;;;7.10;99.90;;;;;;5076666;28;20252;-68
2022/11/22 01:03:26;;;;;;;14.90;3.40;;;7.20;99.90;;;;;;5076649;28;20173;-68
2022/11/22 01:05:52;;;;;;;12.30;2.90;;;7.10;99.90;;;;;;5077033;28;20196;-68
2022/11/22 01:08:17;;;;;;;15.60;3.60;;;7.00;99.90;;;;;;5076646;28;20241;-68
2022/11/22 01:10:43;;;;;;;12.10;3.13;;;7.00;99.90;;;;;;5076587;28;20322;-68
2022/11/22 01:13:10;;;;;;;12.87;3.40;;;7.00;99.90;;;;;;5076651;28;20169;-67
2022/11/22 01:15:36;;;;;;;10.73;2.83;;;7.00;99.90;;;;;;5076161;28;20173;-68
2022/11/22 01:18:01;;;;;;;14.50;3.40;;;7.00;99.90;;;;;;5076598;28;20168;-67
2022/11/22 01:20:29;;;;;;;14.47;3.07;;;7.00;99.90;;;;;;5076532;28;20644;-68
2022/11/22 01:22:55;;;;;;;13.13;3.13;;;7.00;99.90;;;;;;5076393;28;20646;-68
2022/11/22 01:25:21;;;;;;;9.43;3.23;;;7.00;99.90;;;;;;5076394;28;20212;-67
2022/11/22 01:27:47;;;;;;;11.63;3.30;;;6.90;99.90;;;;;;5076520;28;20640;-68
2022/11/22 01:30:13;;;;;;;13.07;2.73;;;6.90;99.90;;;;;;5075687;28;20242;-67
2022/11/22 01:32:38;;;;;;;12.17;3.33;;;6.90;99.90;;;;;;5075980;28;20180;-68
2022/11/22 01:35:04;;;;;;;13.00;3.53;;;6.90;99.90;;;;;;5076265;28;20177;-68
2022/11/22 01:37:30;;;;;;;13.17;3.57;;;6.90;99.90;;;;;;5076225;28;20578;-69
2022/11/22 01:39:55;;;;;;;14.93;3.27;;;6.90;99.90;;;;;;5076044;28;20169;-68
2022/11/22 01:42:21;;;;;;;13.70;3.10;;;6.90;99.90;;;;;;5076124;28;20256;-68
2022/11/22 01:44:47;;;;;;;12.40;3.90;;;6.90;99.90;;;;;;5075672;28;20643;-68
2022/11/22 01:47:24;;;;;;;8.43;3.23;;;6.80;99.90;;;;;;5075876;28;20165;-68
2022/11/22 01:49:54;;;;;;;16.73;2.97;;;6.80;99.90;;;;;;5075887;28;20675;-67
2022/11/22 01:52:22;;;;;;;11.43;2.70;;;6.80;99.90;;;;;;5075980;28;20188;-68
2022/11/22 01:54:57;;;;;;;10.03;2.77;;;6.70;99.90;;;;;;5075842;28;20192;-68
2022/11/22 01:57:26;;;;;;;12.30;2.70;;;6.70;99.90;;;;;;5075691;28;20651;-68
2022/11/22 02:00:02;;;;;;;11.27;2.97;;;6.60;99.90;;;;;;5075421;28;20640;-68
2022/11/22 02:02:28;;;;;;;16.37;3.10;;;6.60;99.90;;;;;;5057383;28;20176;-68
2022/11/22 02:04:58;;;;;;;12.33;2.93;;;6.60;99.90;;;;;;5075707;28;20179;-68
2022/11/22 02:07:49;;;;;;;10.73;2.63;;;6.60;99.90;;;;;;5075581;28;20705;-68
2022/11/22 02:10:17;;;;;;;13.03;2.37;;;6.60;99.90;;;;;;5075589;28;20660;-68
2022/11/22 02:12:43;;;;;;;7.07;2.20;;;6.60;99.90;;;;;;5075189;28;20226;-68
2022/11/22 02:15:11;;;;;;;5.17;2.00;;;6.60;99.90;;;;;;5075578;28;20180;-69
2022/11/22 02:17:36;;;;;;;10.30;2.60;;;6.50;99.90;;;;;;5075506;28;20198;-68
2022/11/22 02:20:03;;;;;;;8.57;2.47;;;6.50;99.90;;;;;;5075356;28;20216;-69
2022/11/22 02:22:46;;;;;;;8.40;2.50;;;6.50;99.90;;;;;;5075247;28;20181;-69
2022/11/22 02:25:21;;;;;;;10.33;2.30;;;6.50;99.90;;;;;;5075280;28;20510;-68
2022/11/22 02:27:48;;;;;;;13.13;2.73;;;6.50;99.90;;;;;;5075088;28;20172;-69
2022/11/22 02:30:14;;;;;;;10.73;2.47;;;6.40;99.90;;;;;;5074757;28;20236;-68
2022/11/22 02:32:40;;;;;;;11.07;2.60;;;6.40;99.90;;;;;;5075174;28;20180;-67
2022/11/22 02:35:22;;;;;;;9.10;2.40;;;6.40;99.90;;;;;;5074935;28;20177;-69
2022/11/22 02:37:51;;;;;;;8.80;2.87;;;6.40;99.90;;;;;;5075138;28;20517;-69
2022/11/22 02:40:18;;;;;;;9.80;2.60;;;6.30;99.90;;;;;;5075082;28;20176;-68
2022/11/22 02:42:54;;;;;;;11.60;2.60;;;6.30;99.90;;;;;;5074667;28;20255;-68
2022/11/22 02:45:22;;;;;;;9.13;2.03;;;6.30;99.90;;;;;;5074662;28;20212;-68
2022/11/22 02:47:48;;;;;;;13.17;2.57;;;6.30;99.90;;;;;;5074846;28;20169;-68
2022/11/22 02:50:13;;;;;;;8.43;2.13;;;6.30;99.90;;;;;;5074688;28;20216;-68
2022/11/22 02:52:39;;;;;;;12.00;2.47;;;6.30;99.90;;;;;;5074830;28;20262;-68
2022/11/22 02:55:05;;;;;;;10.00;2.03;;;6.20;99.90;;;;;;5074260;28;20185;-68
2022/11/22 02:57:31;;;;;;;7.63;2.27;;;6.20;99.90;;;;;;5074373;28;20177;-69
2022/11/22 03:00:00;;;;;;;10.33;2.63;;;6.20;99.90;;;;;;5074374;28;20193;-68
2022/11/22 03:02:25;;;;;;;9.63;2.63;;;6.10;99.90;;;;;;5056768;28;20180;-68
2022/11/22 03:04:51;;;;;;;9.67;2.50;;;6.20;99.90;;;;;;5074558;28;20172;-68
2022/11/22 03:07:17;;;;;;;9.90;1.93;;;6.10;99.90;;;;;;5074353;28;20204;-67
2022/11/22 03:09:45;;;;;;;8.30;1.80;;;6.10;99.90;;;;;;5074524;28;20226;-68
2022/11/22 03:12:11;;;;;;;8.27;1.90;;;6.10;99.90;;;;;;5073935;28;20208;-68
2022/11/22 03:14:36;;;;;;;8.77;2.20;;;6.00;99.90;;;;;;5073249;28;20200;-66
2022/11/22 03:17:02;;;;;;;6.13;2.23;;;6.10;99.90;;;;;;5074249;28;20180;-68
2022/11/22 03:19:27;;;;;;;11.73;2.17;;;6.10;99.90;;;;;;5074144;28;20218;-67
2022/11/22 03:21:53;;;;;;;10.83;2.47;;;6.00;99.90;;;;;;5074222;28;20703;-67
2022/11/22 03:24:19;;;;;;;9.03;2.33;;;6.00;99.90;;;;;;5074093;28;20234;-68
2022/11/22 03:26:48;;;;;;;8.33;2.03;;;6.00;99.90;;;;;;5073650;28;20212;-68
2022/11/22 03:29:15;;;;;;;12.17;2.63;;;5.90;99.90;;;;;;5073942;28;20176;-68
2022/11/22 03:31:41;;;;;;;6.63;2.20;;;6.00;99.90;;;;;;5073583;28;20224;-69
2022/11/22 03:34:07;;;;;;;8.53;2.43;;;6.00;99.90;;;;;;5073934;28;20209;-68
2022/11/22 03:36:33;;;;;;;7.47;1.90;;;5.90;99.90;;;;;;5073750;28;20180;-68
2022/11/22 03:38:58;;;;;;;9.43;2.90;;;6.00;99.90;;;;;;5073765;28;20164;-68
2022/11/22 03:41:24;;;;;;;11.07;2.40;;;6.00;99.90;;;;;;5073244;28;20180;-68
2022/11/22 03:43:49;;;;;;;11.80;2.73;;;5.90;99.90;;;;;;5073560;28;20180;-68
2022/11/22 03:46:18;;;;;;;7.77;2.53;;;5.90;99.90;;;;;;5073780;28;20531;-69
2022/11/22 03:48:44;;;;;;;8.43;2.30;;;5.90;99.90;;;;;;5073445;28;20189;-70
2022/11/22 03:51:10;;;;;;;8.87;2.60;;;5.90;99.90;;;;;;5073494;28;20212;-68
2022/11/22 03:53:36;;;;;;;11.03;2.30;;;5.90;99.90;;;;;;5055426;28;20173;-70
2022/11/22 03:56:02;;;;;;;7.30;2.20;;;6.00;99.90;;;;;;5073258;28;20165;-69
2022/11/22 03:58:28;;;;;;;4.83;2.33;;;5.90;99.90;;;;;;5073173;28;20260;-68
2022/11/22 04:00:54;;;;;;;7.97;2.17;;;5.90;99.90;;;;;;5073502;28;20262;-68
2022/11/22 04:03:20;;;;;;;9.93;2.10;;;5.90;99.90;;;;;;5073350;28;20206;-67
2022/11/22 04:05:45;;;;;;;11.77;2.60;;;5.90;99.90;;;;;;5073339;28;20173;-69
2022/11/22 04:08:11;;;;;;;9.97;2.43;;;5.90;99.90;;;;;;5073051;28;20252;-68
2022/11/22 04:10:37;;;;;;;14.43;2.40;;;6.00;99.90;;;;;;5073138;28;20699;-68
2022/11/22 04:13:02;;;;;;;9.83;2.53;;;6.00;99.90;;;;;;5072902;28;20203;-68
2022/11/22 04:15:28;;;;;;;6.20;2.10;;;6.00;99.90;;;;;;5073238;28;20180;-68
2022/11/22 04:17:54;;;;;;;9.00;2.50;;;6.00;99.90;;;;;;5073101;28;20176;-67
2022/11/22 04:23:19;;;;;;;9.37;2.33;;;6.00;99.90;;;;;;5072954;28;20180;-69
2022/11/22 04:25:47;;;;;;;8.67;2.00;;;6.00;99.90;;;;;;5072980;28;20175;-69
2022/11/22 04:28:15;;;;;;;7.63;2.33;;;6.10;99.90;;;;;;5073070;28;20264;-68
2022/11/22 04:33:28;;;;;;;7.87;2.23;;;6.10;99.90;;;;;;5072806;28;20552;-67
2022/11/22 04:35:54;;;;;;;8.37;2.07;;;6.10;99.90;;;;;;5072551;28;20663;-68
2022/11/22 04:38:21;;;;;;;9.37;2.77;;;6.20;99.90;;;;;;5072291;28;20184;-68
2022/11/22 04:40:47;;;;;;;6.23;2.10;;;6.20;99.90;;;;;;5073086;28;20185;-68
2022/11/22 04:46:01;;;;;;;8.03;2.20;;;6.40;99.90;;;;;;5072571;28;20624;-68
2022/11/22 04:48:26;;;;;;;8.97;2.97;;;6.40;99.90;;;;;;5072564;28;20250;-69
2022/11/22 04:53:36;;;;;;;7.23;2.37;;;6.40;99.90;;;;;;5072414;28;20183;-67
2022/11/22 04:56:02;;;;;;;6.57;2.40;;;6.40;99.90;;;;;;5072469;28;20263;-68
2022/11/22 04:58:28;;;;;;;7.40;2.40;;;6.40;99.90;;;;;;5072160;28;20177;-67
2022/11/22 05:00:53;;;;;;;13.00;2.80;;;6.40;99.90;;;;;;5054596;28;20271;-68
2022/11/22 05:03:19;;;;;;;8.27;2.77;;;6.40;99.90;;;;;;5072670;28;20651;-68
2022/11/22 05:05:45;;;;;;;9.17;2.63;;;6.30;99.90;;;;;;5072191;28;20314;-69
2022/11/22 05:08:11;;;;;;;8.20;2.90;;;6.30;99.90;;;;;;5072182;28;20173;-68
2022/11/22 05:10:55;;;;;;;12.70;3.00;;;6.20;99.90;;;;;;5072490;28;20204;-68
2022/11/22 05:13:41;;;;;;;10.27;2.73;;;6.20;99.90;;;;;;5071723;28;20160;-68
2022/11/22 05:16:10;;;;;;;8.50;2.87;;;6.20;99.90;;;;;;5072634;28;20226;-68
2022/11/22 05:18:36;;;;;;;7.60;3.00;;;6.20;99.90;;;;;;5072655;28;20639;-69
2022/11/22 05:21:09;;;;;;;8.03;2.50;;;6.20;99.90;;;;;;5071996;28;20180;-68
2022/11/22 05:23:53;;;;;;;10.37;2.80;;;6.20;99.90;;;;;;5072046;28;20165;-68
2022/11/22 05:26:19;;;;;;;7.00;2.70;;;6.30;99.90;;;;;;5056732;28;20172;-69
2022/11/22 05:28:45;;;;;;;5.63;2.57;;;6.30;99.90;;;;;;5072311;28;20172;-68
2022/11/22 05:31:26;;;;;;;8.53;2.40;;;6.30;99.90;;;;;;5071990;28;20232;-69
2022/11/22 05:33:54;;;;;;;8.87;2.83;;;6.40;99.90;;;;;;5072102;28;20218;-69
2022/11/22 05:36:20;;;;;;;7.93;3.03;;;6.40;99.90;;;;;;5071845;28;20164;-69
2022/11/22 05:38:46;;;;;;;10.40;3.33;;;6.40;99.90;;;;;;5073706;28;20172;-68
2022/11/22 05:41:14;;;;;;;7.77;2.50;;;6.50;99.90;;;;;;5075729;28;20267;-69
2022/11/22 05:43:40;;;;;;;6.47;2.50;;;6.50;99.90;;;;;;5057113;28;20225;-68
2022/11/22 05:46:11;;;;;;;13.67;3.13;;;6.50;99.90;;;;;;5075004;28;20279;-68
2022/11/22 05:48:39;;;;;;;15.17;3.33;;;6.50;99.90;;;;;;5075517;28;20168;-69
2022/11/22 05:51:09;;;;;;;15.30;3.00;;;6.50;99.90;;;;;;5074768;28;20240;-69
2022/11/22 05:53:36;;;;;;;17.90;3.70;;;6.60;99.90;;;;;;5056967;28;20177;-68
2022/11/22 05:56:06;;;;;;;51.07;6.03;;;6.70;99.90;;;;;;5075530;28;20226;-68
2022/11/22 05:58:32;;;;;;;10.83;3.00;;;6.70;99.90;;;;;;5074880;28;20241;-69
2022/11/22 06:01:03;;;;;;;5.73;2.60;;;6.70;99.90;;;;;;5075310;28;20267;-68
2022/11/22 06:03:29;;;;;;;8.47;2.97;;;6.70;99.90;;;;;;5074507;28;20172;-67
2022/11/22 06:05:58;;;;;;;9.13;2.90;;;6.70;99.90;;;;;;5074461;28;20192;-69
2022/11/22 06:08:23;;;;;;;7.23;2.70;;;6.80;99.90;;;;;;5075226;28;20180;-68
2022/11/22 06:10:49;;;;;;;6.47;2.93;;;6.80;99.90;;;;;;5073770;28;20219;-69
2022/11/22 06:13:14;;;;;;;6.13;2.57;;;6.80;99.90;;;;;;5074472;28;20291;-69
2022/11/22 06:15:40;;;;;;;7.53;2.50;;;6.80;99.90;;;;;;5074654;28;20177;-67
2022/11/22 06:18:06;;;;;;;5.50;2.50;;;6.90;99.90;;;;;;5074553;28;20188;-69
2022/11/22 06:20:31;;;;;;;7.03;2.80;;;6.90;99.90;;;;;;5073929;28;20169;-70
2022/11/22 06:22:58;;;;;;;9.53;3.03;;;6.80;99.90;;;;;;5074589;28;20686;-68
2022/11/22 06:25:24;;;;;;;7.63;2.97;;;6.80;99.90;;;;;;5073583;28;20177;-69
2022/11/22 06:27:49;;;;;;;8.93;2.53;;;6.90;99.90;;;;;;5073908;28;20241;-69
2022/11/22 06:30:15;;;;;;;4.70;2.40;;;6.90;99.90;;;;;;5074143;28;20229;-68
2022/11/22 06:32:41;;;;;;;7.33;3.03;;;6.90;99.90;;;;;;5074353;28;20644;-69
2022/11/22 06:35:07;;;;;;;7.73;2.70;;;6.90;99.90;;;;;;5073643;28;20165;-68
2022/11/22 06:37:32;;;;;;;6.60;3.20;;;6.80;99.90;;;;;;5073559;28;20278;-68
2022/11/22 06:39:58;;;;;;;6.87;2.90;;;6.80;99.90;;;;;;5073504;28;20177;-68
2022/11/22 06:42:23;;;;;;;8.13;3.27;;;6.80;99.90;;;;;;5073859;28;20169;-68
2022/11/22 06:44:49;;;;;;;5.47;2.93;;;6.90;99.90;;;;;;5073710;28;20176;-69
2022/11/22 06:47:16;;;;;;;5.87;3.33;;;6.80;99.90;;;;;;5073147;28;20631;-68
2022/11/22 06:49:43;;;;;;;7.63;3.00;;;6.90;99.90;;;;;;5073479;28;20176;-69
2022/11/22 06:52:08;;;;;;;6.03;3.10;;;7.00;99.90;;;;;;5073732;28;20168;-69
2022/11/22 06:54:34;;;;;;;7.87;2.67;;;6.90;99.90;;;;;;5073494;28;20179;-69
2022/11/22 06:56:59;;;;;;;4.73;2.80;;;6.90;99.90;;;;;;5072406;28;20640;-69
2022/11/22 06:59:27;;;;;;;7.40;3.07;;;7.00;99.90;;;;;;5073210;28;20257;-68
2022/11/22 07:01:53;;;;;;;7.77;2.70;;;7.00;99.90;;;;;;5072560;28;20176;-69
2022/11/22 07:04:18;;;;;;;5.50;3.17;;;7.00;99.90;;;;;;5072773;28;20172;-68
2022/11/22 07:06:44;;;;;;;7.03;3.30;;;6.90;99.90;;;;;;5072717;28;20227;-69
2022/11/22 07:09:10;;;;;;;8.83;3.27;;;6.90;99.90;;;;;;5073287;28;20175;-69
2022/11/22 07:11:36;;;;;;;6.60;2.83;;;6.90;99.90;;;;;;5073297;28;20544;-68
2022/11/22 07:14:04;;;;;;;6.73;3.10;;;6.90;99.90;;;;;;5072509;28;20183;-70
2022/11/22 07:16:30;;;;;;;6.47;2.80;;;7.00;99.90;;;;;;5072233;28;20176;-69
2022/11/22 07:18:58;;;;;;;6.83;2.70;;;7.00;99.90;;;;;;5072641;28;20226;-68
2022/11/22 07:21:24;;;;;;;6.73;3.10;;;7.00;99.90;;;;;;5072607;28;20173;-69
2022/11/22 07:23:52;;;;;;;6.43;2.80;;;7.00;99.90;;;;;;5072128;28;20175;-69
2022/11/22 07:26:21;;;;;;;5.37;3.13;;;7.00;99.90;;;;;;5072047;28;20175;-70
2022/11/22 07:28:47;;;;;;;7.80;3.43;;;7.00;99.90;;;;;;5054099;28;20168;-69
2022/11/22 07:31:15;;;;;;;7.63;3.40;;;7.00;99.90;;;;;;5072208;28;20224;-68
2022/11/22 07:33:42;;;;;;;6.57;3.03;;;7.00;99.90;;;;;;5071304;28;20184;-69
2022/11/22 07:36:10;;;;;;;6.60;3.47;;;7.00;99.90;;;;;;5071934;28;20172;-69
2022/11/22 07:38:36;;;;;;;9.30;3.20;;;7.00;99.90;;;;;;5072643;28;20165;-69
2022/11/22 07:41:02;;;;;;;6.20;3.17;;;7.00;99.90;;;;;;5071207;28;20181;-69
2022/11/22 07:43:28;;;;;;;9.27;2.80;;;7.20;99.90;;;;;;5068899;28;20655;-69
2022/11/22 07:46:02;;;;;;;7.67;2.90;;;7.20;99.90;;;;;;5053007;28;20180;-68
2022/11/22 07:48:28;;;;;;;7.60;3.17;;;7.20;99.90;;;;;;5087474;28;20237;-68
2022/11/22 07:50:56;;;;;;;7.20;2.80;;;7.20;99.90;;;;;;5092785;28;20212;-69
2022/11/22 07:53:21;;;;;;;7.97;2.70;;;7.20;99.90;;;;;;5092271;28;20217;-68
2022/11/22 07:55:47;;;;;;;7.30;3.13;;;7.20;99.90;;;;;;5091661;28;20171;-68
2022/11/22 07:58:13;;;;;;;7.40;2.70;;;7.30;99.90;;;;;;5090410;28;20172;-70
2022/11/22 08:00:41;;;;;;;5.37;2.60;;;7.30;99.90;;;;;;5092117;28;20566;-68
2022/11/22 08:03:07;;;;;;;10.10;2.90;;;7.40;99.90;;;;;;5092283;28;20172;-68
2022/11/22 08:05:33;;;;;;;6.13;2.13;;;7.40;99.90;;;;;;5091937;28;20510;-71
2022/11/22 08:07:58;;;;;;;9.53;3.67;;;7.40;99.90;;;;;;5091217;28;20240;-69
2022/11/22 08:10:24;;;;;;;7.97;2.70;;;7.40;99.90;;;;;;5091888;28;20250;-69
2022/11/22 08:12:49;;;;;;;6.27;2.93;;;7.40;99.90;;;;;;5092552;28;20256;-70
2022/11/22 08:15:16;;;;;;;9.27;2.97;;;7.50;99.90;;;;;;5073117;28;20167;-69
2022/11/22 08:17:42;;;;;;;13.50;7.37;;;7.50;99.90;;;;;;5091441;28;20233;-69
2022/11/22 08:20:10;;;;;;;31.33;21.17;;;7.40;99.90;;;;;;5091867;28;20252;-69
2022/11/22 08:22:39;;;;;;;6.80;3.50;;;7.40;99.90;;;;;;5092214;28;20179;-70
2022/11/22 08:25:11;;;;;;;6.17;2.47;;;7.50;99.90;;;;;;5091848;28;20160;-69
2022/11/22 08:27:40;;;;;;;8.17;5.90;;;7.40;99.90;;;;;;5088732;28;20203;-70
2022/11/22 08:30:07;;;;;;;56.73;50.77;;;7.40;99.90;;;;;;5091662;28;20220;-69
2022/11/22 08:32:33;;;;;;;5.20;3.10;;;7.40;99.90;;;;;;5092203;28;20298;-71
2022/11/22 08:34:59;;;;;;;7.43;3.77;;;7.40;99.90;;;;;;5091157;28;20166;-69
2022/11/22 08:37:24;;;;;;;4.23;2.30;;;7.50;99.90;;;;;;5073420;28;20175;-68
2022/11/22 08:39:53;;;;;;;9.60;4.00;;;7.40;99.90;;;;;;5092962;28;20168;-70
2022/11/22 08:42:18;;;;;;;8.40;2.97;;;7.50;99.90;;;;;;5092197;28;20175;-70
2022/11/22 08:44:44;;;;;;;6.20;3.10;;;7.60;99.90;;;;;;5091469;28;20504;-70
2022/11/22 08:47:09;;;;;;;4.13;2.57;;;7.60;99.90;;;;;;5091891;28;20164;-69
2022/11/22 08:49:35;;;;;;;8.77;4.30;;;7.60;99.90;;;;;;5090503;28;20229;-69
2022/11/22 08:52:01;;;;;;;6.30;3.17;;;7.50;99.90;;;;;;5073654;28;20294;-70
2022/11/22 08:54:27;;;;;;;6.53;2.47;;;7.50;99.90;;;;;;5092337;28;20241;-70
2022/11/22 08:56:52;;;;;;;6.20;2.27;;;7.50;99.90;;;;;;5092496;28;20250;-68
2022/11/22 08:59:18;;;;;;;7.77;2.60;;;7.50;99.90;;;;;;5091417;28;20199;-70
2022/11/22 09:01:43;;;;;;;5.43;2.50;;;7.50;99.90;;;;;;5083392;28;20184;-69
2022/11/22 09:04:09;;;;;;;7.10;2.17;;;7.40;99.90;;;;;;5083537;28;20290;-70
2022/11/22 09:06:35;;;;;;;8.50;2.80;;;7.50;99.90;;;;;;5079477;28;20208;-69
2022/11/22 09:09:00;;;;;;;7.17;4.53;;;7.60;99.90;;;;;;5085991;28;20184;-69
2022/11/22 09:11:26;;;;;;;10.33;2.73;;;7.60;99.90;;;;;;5090169;28;20563;-70
2022/11/22 09:13:52;;;;;;;5.53;2.23;;;7.60;99.90;;;;;;5094778;28;20164;-70
2022/11/22 09:16:18;;;;;;;4.43;2.90;;;7.70;99.90;;;;;;5096026;28;20237;-71
2022/11/22 09:18:45;;;;;;;7.07;2.30;;;7.60;99.90;;;;;;5095564;28;20176;-70
2022/11/22 09:21:16;;;;;;;4.40;2.10;;;7.60;99.90;;;;;;5095883;28;20184;-69
2022/11/22 09:23:43;;;;;;;6.57;2.13;;;7.60;99.90;;;;;;5095353;28;20156;-70
2022/11/22 09:26:12;;;;;;;3.53;2.07;;;7.60;99.90;;;;;;5095588;28;20168;-70
2022/11/22 09:28:38;;;;;;;2.97;1.90;;;7.60;99.90;;;;;;5095026;28;20164;-72
2022/11/22 09:31:08;;;;;;;3.93;2.27;;;7.60;99.90;;;;;;5091877;28;20307;-69
2022/11/22 09:33:39;;;;;;;2.07;1.87;;;7.50;99.90;;;;;;5075279;28;20184;-71
2022/11/22 09:36:13;;;;;;;5.87;1.90;;;7.60;99.90;;;;;;5075209;28;20181;-70
2022/11/22 09:38:39;;;;;;;5.03;2.00;;;7.60;99.90;;;;;;5075264;28;20168;-70
2022/11/22 09:41:40;;;;;;;2.27;1.30;;;7.70;99.90;;;;;;5078001;28;20176;-70
2022/11/22 09:44:21;;;;;;;4.83;2.00;;;7.70;99.90;;;;;;5094636;28;20626;-69
2022/11/22 09:47:06;;;;;;;7.70;2.17;;;7.70;99.90;;;;;;5094728;28;20163;-70
2022/11/22 09:50:06;;;;;;;3.83;1.60;;;7.70;99.90;;;;;;5095037;28;20160;-70
2022/11/22 09:52:54;;;;;;;6.53;1.90;;;7.60;99.90;;;;;;5094973;28;20284;-71
2022/11/22 09:55:40;;;;;;;4.27;1.53;;;7.70;99.90;;;;;;5094862;28;20163;-70
2022/11/22 09:58:32;;;;;;;3.10;1.70;;;7.80;99.90;;;;;;5094646;28;20171;-69
2022/11/22 10:01:19;;;;;;;4.67;2.00;;;7.80;99.90;;;;;;5095449;28;20164;-70
2022/11/22 10:03:56;;;;;;;5.90;1.80;;;7.90;99.90;;;;;;5094889;28;20196;-69
2022/11/22 10:06:38;;;;;;;3.97;2.20;;;7.90;99.90;;;;;;5094680;28;20164;-71
2022/11/22 10:09:31;;;;;;;6.90;3.20;;;8.00;99.90;;;;;;5094307;28;20668;-71
2022/11/22 10:12:03;;;;;;;4.37;2.00;;;8.10;99.90;;;;;;5093966;28;20200;-69
2022/11/22 10:14:52;;;;;;;2.73;2.03;;;8.10;99.90;;;;;;5075769;28;20183;-70
2022/11/22 10:17:27;;;;;;;6.27;2.33;;;8.40;99.90;;;;;;5076703;28;20164;-70
2022/11/22 10:20:19;;;;;;;58.03;35.10;;;8.60;99.90;;;;;;5094974;28;20666;-71
2022/11/22 10:22:46;;;;;;;3.57;1.80;;;8.70;99.90;;;;;;5093661;28;20195;-70
2022/11/22 10:25:21;;;;;;;40.97;23.23;;;8.90;99.90;;;;;;5094402;28;20179;-71
2022/11/22 10:27:52;;;;;;;16.20;2.30;;;9.10;99.90;;;;;;5094099;28;20231;-69
2022/11/22 10:30:19;;;;;;;11.97;10.67;;;9.10;99.90;;;;;;5094891;28;20306;-71
2022/11/22 10:32:54;;;;;;;4.03;3.53;;;9.20;99.90;;;;;;5094369;28;20174;-71
2022/11/22 10:35:35;;;;;;;8.57;7.67;;;9.20;99.90;;;;;;5094541;28;20247;-70
2022/11/22 10:38:35;;;;;;;4.80;1.80;;;9.20;99.90;;;;;;5074983;28;20547;-71
2022/11/22 10:41:21;;;;;;;4.00;1.50;;;9.10;99.90;;;;;;4997560;28;20182;-70
2022/11/22 10:44:28;;;;;;;3.13;1.83;;;9.10;99.90;;;;;;5093069;28;20182;-71
2022/11/22 10:47:12;;;;;;;5.90;2.10;;;9.10;99.90;;;;;;5092982;28;20175;-70
2022/11/22 10:50:15;;;;;;;3.40;1.30;;;9.20;99.90;;;;;;5076645;28;20168;-70
2022/11/22 10:52:46;;;;;;;1.63;1.53;;;9.00;99.90;;;;;;5093353;28;20249;-69
2022/11/22 10:55:36;;;;;;;2.87;1.40;;;9.00;99.90;;;;;;5092944;28;20165;-69
2022/11/22 10:58:24;;;;;;;3.40;1.57;;;8.90;99.90;;;;;;5094189;28;20156;-70
2022/11/22 11:01:03;;;;;;;3.30;1.50;;;9.00;99.90;;;;;;5094146;28;20171;-71
2022/11/22 11:03:38;;;;;;;4.53;3.33;;;9.00;99.90;;;;;;5093696;28;20195;-70
2022/11/22 11:06:13;;;;;;;3.50;1.43;;;8.90;99.90;;;;;;5093722;28;20258;-69
2022/11/22 11:08:48;;;;;;;3.00;2.17;;;8.90;99.90;;;;;;5093269;28;20178;-70
2022/11/22 11:11:14;;;;;;;2.13;1.60;;;8.90;99.90;;;;;;5093057;28;20230;-71
2022/11/22 11:13:48;;;;;;;2.27;1.50;;;8.80;99.90;;;;;;5092807;28;20176;-69
2022/11/22 11:16:24;;;;;;;1.40;1.30;;;8.70;99.90;;;;;;5093508;28;20176;-69
2022/11/22 11:19:03;;;;;;;2.83;1.20;;;8.70;99.90;;;;;;5092540;28;20220;-69
2022/11/22 11:21:28;;;;;;;4.80;1.67;;;8.60;99.90;;;;;;5091292;28;20180;-69
2022/11/22 11:23:54;;;;;;;4.10;1.77;;;8.60;99.90;;;;;;5091728;28;20179;-70
2022/11/22 11:26:33;;;;;;;1.70;1.60;;;8.70;99.90;;;;;;5092792;28;20607;-70
2022/11/22 11:29:17;;;;;;;4.57;2.20;;;8.70;99.90;;;;;;5074375;28;20168;-70
2022/11/22 11:31:47;;;;;;;1.60;1.50;;;8.80;99.90;;;;;;5092733;28;20627;-69
2022/11/22 11:34:24;;;;;;;2.47;1.57;;;8.80;99.90;;;;;;5092635;28;20172;-71
2022/11/22 11:36:53;;;;;;;3.73;2.00;;;8.90;99.90;;;;;;5090252;28;20665;-70
2022/11/22 11:39:26;;;;;;;29.37;17.47;;;9.00;99.90;;;;;;5092654;28;20168;-70
2022/11/22 11:41:52;;;;;;;2.03;1.30;;;9.20;99.90;;;;;;5093277;28;20164;-70
2022/11/22 11:44:30;;;;;;;3.00;1.60;;;9.10;99.90;;;;;;5093304;28;20172;-70
2022/11/22 11:46:57;;;;;;;2.43;1.80;;;9.10;99.90;;;;;;5092970;28;20163;-69
2022/11/22 11:49:33;;;;;;;2.27;1.07;;;9.30;99.90;;;;;;5092963;28;20177;-70
2022/11/22 11:52:07;;;;;;;1.30;1.20;;;9.10;99.90;;;;;;5093276;28;20250;-70
2022/11/22 11:54:45;;;;;;;10.63;8.53;;;9.00;99.90;;;;;;5093056;28;20252;-71
2022/11/22 11:57:15;;;;;;;15.87;14.27;;;9.10;99.90;;;;;;5093246;28;20164;-71
2022/11/22 11:59:46;;;;;;;3.70;1.43;;;9.30;99.90;;;;;;5091789;28;20191;-70
2022/11/22 12:02:49;;;;;;;2.60;1.93;;;9.30;99.90;;;;;;5093119;28;20171;-71
2022/11/22 12:05:14;;;;;;;8.53;7.13;;;9.50;99.90;;;;;;5010922;28;20208;-71
2022/11/22 12:07:43;;;;;;;8.23;5.20;;;9.60;99.90;;;;;;5010627;28;20182;-71
2022/11/22 12:10:30;;;;;;;47.37;34.83;;;9.50;99.90;;;;;;5010481;28;20276;-70
2022/11/22 12:13:23;;;;;;;4.53;1.80;;;9.70;99.90;;;;;;5011149;28;20193;-72
2022/11/22 12:16:24;;;;;;;58.57;42.57;;;9.70;99.90;;;;;;5011060;28;20233;-71
2022/11/22 12:19:08;;;;;;;3.77;2.30;;;9.70;99.90;;;;;;5010589;28;20166;-71
2022/11/22 12:21:55;;;;;;;3.93;2.17;;;9.70;99.90;;;;;;5010571;28;20177;-71
2022/11/22 12:24:36;;;;;;;3.03;2.80;;;9.80;99.90;;;;;;5011018;28;20174;-72
2022/11/22 12:27:02;;;;;;;2.30;1.57;;;9.80;99.90;;;;;;5010379;28;20193;-70
2022/11/22 12:29:29;;;;;;;2.43;1.70;;;10.00;99.90;;;;;;5011165;28;20174;-71
2022/11/22 12:32:19;;;;;;;7.23;4.20;;;10.00;99.90;;;;;;5006691;28;20226;-71
2022/11/22 12:35:12;;;;;;;3.20;2.67;;;10.00;99.90;;;;;;4993233;28;20190;-71
2022/11/22 12:37:49;;;;;;;5.57;2.90;;;10.10;99.90;;;;;;5004875;28;20190;-71
2022/11/22 12:40:30;;;;;;;3.17;2.40;;;10.00;99.90;;;;;;5068505;28;20172;-71
2022/11/22 12:43:02;;;;;;;1.40;1.30;;;10.00;99.90;;;;;;5072561;28;20172;-71
2022/11/22 12:45:35;;;;;;;1.80;1.60;;;10.00;99.90;;;;;;5072162;28;20176;-72
2022/11/22 12:48:07;;;;;;;5.30;4.60;;;9.90;99.90;;;;;;5075386;28;20169;-70
2022/11/22 12:50:44;;;;;;;3.23;1.80;;;9.80;99.90;;;;;;5091752;28;20215;-71
2022/11/22 12:53:27;;;;;;;3.50;2.73;;;9.90;99.90;;;;;;5076574;28;20164;-72
2022/11/22 12:55:57;;;;;;;2.33;1.40;;;9.90;99.90;;;;;;5074477;28;20176;-72
2022/11/22 12:58:56;;;;;;;3.50;1.90;;;9.70;99.90;;;;;;5076106;28;20204;-71
2022/11/22 13:01:31;;;;;;;17.77;10.77;;;9.60;99.90;;;;;;5056165;28;20220;-71
2022/11/22 13:04:00;;;;;;;2.43;1.77;;;9.50;99.90;;;;;;5075826;28;20168;-71
2022/11/22 13:06:33;;;;;;;4.87;2.30;;;9.60;99.90;;;;;;5075809;28;20176;-71
2022/11/22 13:09:03;;;;;;;2.70;2.10;;;9.60;99.90;;;;;;5075685;28;20165;-72
2022/11/22 13:11:55;;;;;;;9.97;2.23;;;9.60;99.90;;;;;;5076213;28;20523;-71
2022/11/22 13:14:31;;;;;;;3.57;2.47;;;9.60;99.90;;;;;;5075658;28;20165;-71
2022/11/22 13:16:58;;;;;;;7.30;2.80;;;9.70;99.90;;;;;;5075430;28;20192;-71
2022/11/22 13:19:25;;;;;;;4.20;1.90;;;9.80;99.90;;;;;;5075765;28;20674;-71
2022/11/22 13:22:16;;;;;;;10.17;2.77;;;9.80;99.90;;;;;;5075527;28;20203;-71